sensor_id;sensor_type;location;lat;lon;timestamp;pressure;altitude;pressure_sealevel;temperature;humidity
35224;BME280;21367;51.930;8.112;2023-02-11T00:01:39;102659.69;;;5.49;100.00
35224;BME280;21367;51.930;8.112;2023-02-11T00:06:43;102669.72;;;5.48;100.00
35224;BME280;21367;51.930;8.112;2023-02-11T00:11:49;102670.91;;;5.51;100.00
35224;BME280;21367;51.930;8.112;2023-02-11T00:16:53;102676.16;;;5.62;100.00
35224;BME280;21367;51.930;8.112;2023-02-11T00:21:56;102668.53;;;5.53;100.00
35224;BME280;21367;51.930;8.112;2023-02-11T00:27:03;102662.34;;;5.60;100.00
35224;BME280;21367;51.930;8.112;2023-02-11T00:32:08;102659.94;;;5.61;100.00
35224;BME280;21367;51.930;8.112;2023-02-11T00:37:12;102660.59;;;5.50;100.00
35224;BME280;21367;51.930;8.112;2023-02-11T00:42:19;102659.41;;;5.46;100.00
35224;BME280;21367;51.930;8.112;2023-02-11T00:47:23;102658.53;;;5.37;100.00
35224;BME280;21367;51.930;8.112;2023-02-11T00:52:27;102664.34;;;5.45;100.00
35224;BME280;21367;51.930;8.112;2023-02-11T00:57:33;102659.38;;;5.55;100.00
35224;BME280;21367;51.930;8.112;2023-02-11T01:02:37;102666.31;;;5.39;100.00
35224;BME280;21367;51.930;8.112;2023-02-11T01:07:40;102672.84;;;5.63;100.00
35224;BME280;21367;51.930;8.112;2023-02-11T01:12:47;102671.66;;;5.59;100.00
35224;BME280;21367;51.930;8.112;2023-02-11T01:17:51;102676.75;;;5.59;100.00
35224;BME280;21367;51.930;8.112;2023-02-11T01:22:56;102672.22;;;5.65;100.00
35224;BME280;21367;51.930;8.112;2023-02-11T01:28:02;102670.28;;;5.63;100.00
35224;BME280;21367;51.930;8.112;2023-02-11T01:33:05;102654.13;;;5.53;100.00
35224;BME280;21367;51.930;8.112;2023-02-11T01:38:15;102628.19;;;5.49;100.00
35224;BME280;21367;51.930;8.112;2023-02-11T01:43:23;102620.09;;;5.44;100.00
35224;BME280;21367;51.930;8.112;2023-02-11T01:48:28;102629.72;;;5.38;100.00
35224;BME280;21367;51.930;8.112;2023-02-11T01:53:35;102628.13;;;5.57;100.00
35224;BME280;21367;51.930;8.112;2023-02-11T01:59:06;102638.50;;;5.59;100.00
35224;BME280;21367;51.930;8.112;2023-02-11T02:04:15;102629.34;;;5.61;100.00
35224;BME280;21367;51.930;8.112;2023-02-11T02:09:22;102617.25;;;5.50;100.00
35224;BME280;21367;51.930;8.112;2023-02-11T02:14:30;102609.41;;;5.48;100.00
35224;BME280;21367;51.930;8.112;2023-02-11T02:25:31;102612.47;;;5.44;100.00
35224;BME280;21367;51.930;8.112;2023-02-11T02:30:56;102585.97;;;5.61;100.00
35224;BME280;21367;51.930;8.112;2023-02-11T02:36:13;102604.00;;;5.82;100.00
35224;BME280;21367;51.930;8.112;2023-02-11T02:41:22;102598.34;;;5.48;100.00
35224;BME280;21367;51.930;8.112;2023-02-11T02:46:29;102602.78;;;5.59;100.00
35224;BME280;21367;51.930;8.112;2023-02-11T02:51:55;102601.22;;;5.70;100.00
35224;BME280;21367;51.930;8.112;2023-02-11T02:57:11;102607.84;;;5.40;100.00
35224;BME280;21367;51.930;8.112;2023-02-11T03:02:22;102614.88;;;5.43;100.00
35224;BME280;21367;51.930;8.112;2023-02-11T03:07:36;102617.78;;;5.65;100.00
35224;BME280;21367;51.930;8.112;2023-02-11T03:12:45;102616.69;;;5.71;100.00
35224;BME280;21367;51.930;8.112;2023-02-11T03:17:53;102613.84;;;5.68;100.00
35224;BME280;21367;51.930;8.112;2023-02-11T03:23:06;102604.44;;;5.86;100.00
35224;BME280;21367;51.930;8.112;2023-02-11T03:28:16;102575.25;;;5.74;100.00
35224;BME280;21367;51.930;8.112;2023-02-11T03:33:28;102569.22;;;5.73;100.00
35224;BME280;21367;51.930;8.112;2023-02-11T03:38:40;102576.22;;;5.57;100.00
35224;BME280;21367;51.930;8.112;2023-02-11T03:43:50;102578.94;;;5.59;100.00
35224;BME280;21367;51.930;8.112;2023-02-11T03:48:58;102570.28;;;5.75;100.00
35224;BME280;21367;51.930;8.112;2023-02-11T03:54:11;102572.66;;;5.55;100.00
35224;BME280;21367;51.930;8.112;2023-02-11T03:59:17;102576.75;;;5.72;100.00
35224;BME280;21367;51.930;8.112;2023-02-11T04:04:21;102581.81;;;5.53;100.00
35224;BME280;21367;51.930;8.112;2023-02-11T04:09:27;102588.63;;;5.71;100.00
35224;BME280;21367;51.930;8.112;2023-02-11T04:14:31;102589.91;;;5.76;100.00
35224;BME280;21367;51.930;8.112;2023-02-11T04:19:34;102599.72;;;5.72;100.00
35224;BME280;21367;51.930;8.112;2023-02-11T04:24:41;102605.44;;;5.69;100.00
35224;BME280;21367;51.930;8.112;2023-02-11T04:29:45;102584.53;;;5.73;100.00
35224;BME280;21367;51.930;8.112;2023-02-11T04:34:49;102590.44;;;5.64;100.00
35224;BME280;21367;51.930;8.112;2023-02-11T04:39:56;102574.56;;;5.57;100.00
35224;BME280;21367;51.930;8.112;2023-02-11T04:45:00;102580.97;;;5.71;100.00
35224;BME280;21367;51.930;8.112;2023-02-11T04:50:04;102582.72;;;5.53;100.00
35224;BME280;21367;51.930;8.112;2023-02-11T04:55:11;102573.72;;;5.48;100.00
35224;BME280;21367;51.930;8.112;2023-02-11T05:00:16;102580.16;;;5.53;100.00
35224;BME280;21367;51.930;8.112;2023-02-11T05:05:19;102587.59;;;5.61;100.00
35224;BME280;21367;51.930;8.112;2023-02-11T05:10:26;102584.16;;;5.60;100.00
35224;BME280;21367;51.930;8.112;2023-02-11T05:15:29;102579.84;;;5.59;100.00
35224;BME280;21367;51.930;8.112;2023-02-11T05:20:33;102580.94;;;5.52;100.00
35224;BME280;21367;51.930;8.112;2023-02-11T05:25:39;102584.69;;;5.75;100.00
35224;BME280;21367;51.930;8.112;2023-02-11T05:30:43;102589.47;;;5.53;100.00
35224;BME280;21367;51.930;8.112;2023-02-11T05:35:48;102593.09;;;5.46;100.00
35224;BME280;21367;51.930;8.112;2023-02-11T05:40:57;102592.91;;;5.53;100.00
35224;BME280;21367;51.930;8.112;2023-02-11T05:46:01;102578.38;;;5.52;100.00
35224;BME280;21367;51.930;8.112;2023-02-11T05:51:05;102566.34;;;5.51;100.00
35224;BME280;21367;51.930;8.112;2023-02-11T05:56:12;102564.94;;;5.64;100.00
35224;BME280;21367;51.930;8.112;2023-02-11T06:01:16;102572.75;;;5.65;100.00
35224;BME280;21367;51.930;8.112;2023-02-11T06:06:20;102581.72;;;5.70;100.00
35224;BME280;21367;51.930;8.112;2023-02-11T06:11:26;102576.53;;;5.79;100.00
35224;BME280;21367;51.930;8.112;2023-02-11T06:16:31;102565.09;;;5.65;100.00
35224;BME280;21367;51.930;8.112;2023-02-11T06:21:37;102571.34;;;5.50;100.00
35224;BME280;21367;51.930;8.112;2023-02-11T06:26:43;102586.47;;;5.48;100.00
35224;BME280;21367;51.930;8.112;2023-02-11T06:31:47;102581.53;;;5.50;100.00
35224;BME280;21367;51.930;8.112;2023-02-11T06:36:51;102578.78;;;5.29;100.00
35224;BME280;21367;51.930;8.112;2023-02-11T06:42:00;102580.69;;;5.68;100.00
35224;BME280;21367;51.930;8.112;2023-02-11T06:47:04;102589.88;;;5.57;100.00
35224;BME280;21367;51.930;8.112;2023-02-11T06:52:08;102589.56;;;5.63;100.00
35224;BME280;21367;51.930;8.112;2023-02-11T06:57:14;102588.91;;;5.47;100.00
35224;BME280;21367;51.930;8.112;2023-02-11T07:02:18;102598.69;;;5.42;100.00
35224;BME280;21367;51.930;8.112;2023-02-11T07:07:22;102611.25;;;5.49;100.00
35224;BME280;21367;51.930;8.112;2023-02-11T07:12:28;102622.75;;;5.54;100.00
35224;BME280;21367;51.930;8.112;2023-02-11T07:17:33;102613.59;;;5.56;100.00
35224;BME280;21367;51.930;8.112;2023-02-11T07:22:37;102611.38;;;5.51;100.00
35224;BME280;21367;51.930;8.112;2023-02-11T07:27:43;102611.28;;;5.68;100.00
35224;BME280;21367;51.930;8.112;2023-02-11T07:32:47;102629.69;;;5.47;100.00
35224;BME280;21367;51.930;8.112;2023-02-11T07:37:53;102626.50;;;5.58;100.00
35224;BME280;21367;51.930;8.112;2023-02-11T07:43:00;102629.34;;;5.61;100.00
35224;BME280;21367;51.930;8.112;2023-02-11T07:48:04;102619.16;;;5.61;100.00
35224;BME280;21367;51.930;8.112;2023-02-11T07:53:08;102627.00;;;5.73;100.00
35224;BME280;21367;51.930;8.112;2023-02-11T07:58:14;102629.84;;;5.76;100.00
35224;BME280;21367;51.930;8.112;2023-02-11T08:03:18;102639.66;;;5.63;100.00
35224;BME280;21367;51.930;8.112;2023-02-11T08:08:22;102638.88;;;5.72;100.00
35224;BME280;21367;51.930;8.112;2023-02-11T08:13:30;102635.84;;;5.76;100.00
35224;BME280;21367;51.930;8.112;2023-02-11T08:18:35;102646.00;;;5.85;100.00
35224;BME280;21367;51.930;8.112;2023-02-11T08:23:39;102640.31;;;5.79;100.00
35224;BME280;21367;51.930;8.112;2023-02-11T08:28:47;102649.34;;;5.75;100.00
35224;BME280;21367;51.930;8.112;2023-02-11T08:33:52;102660.41;;;5.85;100.00
35224;BME280;21367;51.930;8.112;2023-02-11T08:38:59;102662.84;;;5.83;100.00
35224;BME280;21367;51.930;8.112;2023-02-11T08:44:07;102672.28;;;5.84;100.00
35224;BME280;21367;51.930;8.112;2023-02-11T08:49:10;102675.41;;;5.90;100.00
35224;BME280;21367;51.930;8.112;2023-02-11T08:54:14;102687.34;;;5.72;100.00
35224;BME280;21367;51.930;8.112;2023-02-11T08:59:21;102683.66;;;5.96;100.00
35224;BME280;21367;51.930;8.112;2023-02-11T09:04:26;102679.97;;;6.12;100.00
35224;BME280;21367;51.930;8.112;2023-02-11T09:09:30;102676.09;;;6.07;100.00
35224;BME280;21367;51.930;8.112;2023-02-11T09:14:36;102682.59;;;5.94;100.00
35224;BME280;21367;51.930;8.112;2023-02-11T09:19:41;102679.16;;;5.85;100.00
35224;BME280;21367;51.930;8.112;2023-02-11T09:24:46;102686.56;;;6.10;100.00
35224;BME280;21367;51.930;8.112;2023-02-11T09:29:54;102691.63;;;6.18;100.00
35224;BME280;21367;51.930;8.112;2023-02-11T09:34:57;102695.81;;;5.99;100.00
35224;BME280;21367;51.930;8.112;2023-02-11T09:40:01;102692.47;;;6.28;100.00
35224;BME280;21367;51.930;8.112;2023-02-11T09:45:16;102713.13;;;6.39;100.00
35224;BME280;21367;51.930;8.112;2023-02-11T09:50:24;102729.06;;;6.37;100.00
35224;BME280;21367;51.930;8.112;2023-02-11T09:55:32;102728.66;;;6.51;100.00
35224;BME280;21367;51.930;8.112;2023-02-11T10:00:45;102737.09;;;6.50;100.00
35224;BME280;21367;51.930;8.112;2023-02-11T10:06:08;102738.47;;;6.65;100.00
35224;BME280;21367;51.930;8.112;2023-02-11T10:11:19;102745.97;;;6.64;100.00
35224;BME280;21367;51.930;8.112;2023-02-11T10:16:50;102746.91;;;6.64;100.00
35224;BME280;21367;51.930;8.112;2023-02-11T10:22:06;102764.91;;;6.66;100.00
35224;BME280;21367;51.930;8.112;2023-02-11T10:27:16;102760.50;;;6.73;100.00
35224;BME280;21367;51.930;8.112;2023-02-11T10:32:31;102771.63;;;6.93;100.00
35224;BME280;21367;51.930;8.112;2023-02-11T10:37:38;102768.09;;;7.01;100.00
35224;BME280;21367;51.930;8.112;2023-02-11T10:42:44;102755.03;;;6.79;100.00
35224;BME280;21367;51.930;8.112;2023-02-11T10:47:53;102760.63;;;6.94;100.00
35224;BME280;21367;51.930;8.112;2023-02-11T10:53:11;102759.72;;;7.12;100.00
35224;BME280;21367;51.930;8.112;2023-02-11T10:58:23;102757.13;;;7.31;100.00
35224;BME280;21367;51.930;8.112;2023-02-11T11:03:34;102768.56;;;7.16;100.00
35224;BME280;21367;51.930;8.112;2023-02-11T11:08:40;102761.97;;;6.99;100.00
35224;BME280;21367;51.930;8.112;2023-02-11T11:13:54;102760.50;;;7.11;100.00
35224;BME280;21367;51.930;8.112;2023-02-11T11:19:20;102760.50;;;7.40;100.00
35224;BME280;21367;51.930;8.112;2023-02-11T11:24:26;102761.44;;;7.51;100.00
35224;BME280;21367;51.930;8.112;2023-02-11T11:29:33;102765.56;;;7.59;100.00
35224;BME280;21367;51.930;8.112;2023-02-11T11:34:41;102774.53;;;7.64;100.00
35224;BME280;21367;51.930;8.112;2023-02-11T11:39:47;102764.66;;;7.30;100.00
35224;BME280;21367;51.930;8.112;2023-02-11T11:44:57;102762.06;;;7.49;100.00
35224;BME280;21367;51.930;8.112;2023-02-11T11:50:28;102765.19;;;7.36;100.00
35224;BME280;21367;51.930;8.112;2023-02-11T11:55:37;102756.06;;;7.19;100.00
35224;BME280;21367;51.930;8.112;2023-02-11T12:00:51;102755.19;;;7.58;100.00
35224;BME280;21367;51.930;8.112;2023-02-11T12:06:09;102755.97;;;7.67;100.00
35224;BME280;21367;51.930;8.112;2023-02-11T12:11:22;102763.66;;;7.67;100.00
35224;BME280;21367;51.930;8.112;2023-02-11T12:16:35;102770.44;;;7.67;100.00
35224;BME280;21367;51.930;8.112;2023-02-11T12:21:55;102766.16;;;7.86;100.00
35224;BME280;21367;51.930;8.112;2023-02-11T12:27:06;102766.69;;;7.92;100.00
35224;BME280;21367;51.930;8.112;2023-02-11T12:32:19;102759.41;;;7.97;100.00
35224;BME280;21367;51.930;8.112;2023-02-11T12:37:41;102761.34;;;8.09;100.00
35224;BME280;21367;51.930;8.112;2023-02-11T12:43:02;102758.69;;;8.18;100.00
35224;BME280;21367;51.930;8.112;2023-02-11T12:48:38;102750.97;;;8.08;99.98
35224;BME280;21367;51.930;8.112;2023-02-11T12:54:03;102743.41;;;7.99;100.00
35224;BME280;21367;51.930;8.112;2023-02-11T12:59:19;102730.47;;;7.87;100.00
35224;BME280;21367;51.930;8.112;2023-02-11T13:04:36;102752.00;;;8.00;100.00
35224;BME280;21367;51.930;8.112;2023-02-11T13:09:50;102746.97;;;8.11;100.00
35224;BME280;21367;51.930;8.112;2023-02-11T13:15:05;102745.09;;;8.29;100.00
35224;BME280;21367;51.930;8.112;2023-02-11T13:20:19;102750.72;;;8.15;100.00
35224;BME280;21367;51.930;8.112;2023-02-11T13:25:30;102743.69;;;8.02;100.00
35224;BME280;21367;51.930;8.112;2023-02-11T13:30:37;102748.28;;;8.27;100.00
35224;BME280;21367;51.930;8.112;2023-02-11T13:41:39;102732.44;;;8.41;100.00
35224;BME280;21367;51.930;8.112;2023-02-11T13:46:51;102735.13;;;8.63;99.62
35224;BME280;21367;51.930;8.112;2023-02-11T13:51:58;102737.38;;;8.91;97.94
35224;BME280;21367;51.930;8.112;2023-02-11T13:57:36;102735.78;;;8.40;99.15
35224;BME280;21367;51.930;8.112;2023-02-11T14:02:40;102738.97;;;8.48;98.54
35224;BME280;21367;51.930;8.112;2023-02-11T14:08:13;102724.56;;;8.80;98.68
35224;BME280;21367;51.930;8.112;2023-02-11T14:13:34;102732.44;;;8.51;99.76
35224;BME280;21367;51.930;8.112;2023-02-11T14:18:58;102736.09;;;8.86;98.61
35224;BME280;21367;51.930;8.112;2023-02-11T14:30:12;102746.09;;;8.93;98.23
35224;BME280;21367;51.930;8.112;2023-02-11T14:35:28;102739.53;;;9.07;97.03
35224;BME280;21367;51.930;8.112;2023-02-11T14:40:43;102739.13;;;9.02;97.35
35224;BME280;21367;51.930;8.112;2023-02-11T14:45:55;102740.94;;;8.93;97.55
35224;BME280;21367;51.930;8.112;2023-02-11T14:51:01;102751.88;;;8.80;98.60
35224;BME280;21367;51.930;8.112;2023-02-11T14:56:17;102741.78;;;8.61;100.00
35224;BME280;21367;51.930;8.112;2023-02-11T15:01:29;102742.69;;;8.72;99.64
35224;BME280;21367;51.930;8.112;2023-02-11T15:06:36;102744.06;;;8.38;100.00
35224;BME280;21367;51.930;8.112;2023-02-11T15:11:42;102751.78;;;8.27;100.00
35224;BME280;21367;51.930;8.112;2023-02-11T15:16:51;102756.75;;;8.16;100.00
35224;BME280;21367;51.930;8.112;2023-02-11T15:21:56;102762.03;;;8.48;100.00
35224;BME280;21367;51.930;8.112;2023-02-11T15:27:03;102764.44;;;8.36;100.00
35224;BME280;21367;51.930;8.112;2023-02-11T15:32:16;102759.88;;;8.63;99.80
35224;BME280;21367;51.930;8.112;2023-02-11T15:37:24;102759.88;;;8.63;97.58
35224;BME280;21367;51.930;8.112;2023-02-11T15:42:30;102762.69;;;8.66;99.89
35224;BME280;21367;51.930;8.112;2023-02-11T15:47:37;102772.56;;;8.71;98.39
35224;BME280;21367;51.930;8.112;2023-02-11T15:52:44;102773.94;;;8.68;99.95
35224;BME280;21367;51.930;8.112;2023-02-11T15:57:52;102779.72;;;8.45;99.34
35224;BME280;21367;51.930;8.112;2023-02-11T16:02:59;102777.16;;;8.45;100.00
35224;BME280;21367;51.930;8.112;2023-02-11T16:08:22;102781.91;;;8.61;100.00
35224;BME280;21367;51.930;8.112;2023-02-11T16:13:26;102794.56;;;8.49;100.00
35224;BME280;21367;51.930;8.112;2023-02-11T16:18:37;102787.16;;;8.52;100.00
35224;BME280;21367;51.930;8.112;2023-02-11T16:23:48;102798.72;;;8.18;100.00
35224;BME280;21367;51.930;8.112;2023-02-11T16:29:01;102800.91;;;8.03;100.00
35224;BME280;21367;51.930;8.112;2023-02-11T16:34:16;102808.34;;;8.10;100.00
35224;BME280;21367;51.930;8.112;2023-02-11T16:39:20;102814.41;;;8.31;100.00
35224;BME280;21367;51.930;8.112;2023-02-11T16:44:24;102819.47;;;8.21;100.00
35224;BME280;21367;51.930;8.112;2023-02-11T16:49:33;102826.16;;;8.19;100.00
35224;BME280;21367;51.930;8.112;2023-02-11T16:54:41;102824.47;;;8.09;100.00
35224;BME280;21367;51.930;8.112;2023-02-11T16:59:45;102831.47;;;8.01;100.00
35224;BME280;21367;51.930;8.112;2023-02-11T17:04:52;102847.34;;;7.97;100.00
35224;BME280;21367;51.930;8.112;2023-02-11T17:09:57;102849.50;;;7.93;100.00
35224;BME280;21367;51.930;8.112;2023-02-11T17:15:02;102849.88;;;7.87;100.00
35224;BME280;21367;51.930;8.112;2023-02-11T17:20:11;102847.88;;;8.03;100.00
35224;BME280;21367;51.930;8.112;2023-02-11T17:25:15;102846.84;;;8.01;100.00
35224;BME280;21367;51.930;8.112;2023-02-11T17:30:20;102848.00;;;8.05;100.00
35224;BME280;21367;51.930;8.112;2023-02-11T17:35:27;102843.66;;;8.04;100.00
35224;BME280;21367;51.930;8.112;2023-02-11T17:40:31;102853.94;;;7.75;100.00
35224;BME280;21367;51.930;8.112;2023-02-11T17:45:39;102852.38;;;7.77;100.00
35224;BME280;21367;51.930;8.112;2023-02-11T17:50:46;102853.06;;;7.84;100.00
35224;BME280;21367;51.930;8.112;2023-02-11T17:55:49;102862.19;;;7.91;100.00
35224;BME280;21367;51.930;8.112;2023-02-11T18:00:56;102852.97;;;7.93;100.00
35224;BME280;21367;51.930;8.112;2023-02-11T18:06:05;102863.69;;;7.89;100.00
35224;BME280;21367;51.930;8.112;2023-02-11T18:11:10;102870.03;;;7.74;100.00
35224;BME280;21367;51.930;8.112;2023-02-11T18:16:15;102884.09;;;7.98;100.00
35224;BME280;21367;51.930;8.112;2023-02-11T18:21:22;102884.91;;;7.78;100.00
35224;BME280;21367;51.930;8.112;2023-02-11T18:26:26;102878.63;;;8.03;100.00
35224;BME280;21367;51.930;8.112;2023-02-11T18:31:30;102872.34;;;8.00;100.00
35224;BME280;21367;51.930;8.112;2023-02-11T18:36:37;102883.16;;;7.87;100.00
35224;BME280;21367;51.930;8.112;2023-02-11T18:41:41;102881.31;;;7.76;100.00
35224;BME280;21367;51.930;8.112;2023-02-11T18:46:45;102886.44;;;7.76;100.00
35224;BME280;21367;51.930;8.112;2023-02-11T18:51:51;102893.78;;;7.92;100.00
35224;BME280;21367;51.930;8.112;2023-02-11T18:56:58;102907.75;;;7.95;100.00
35224;BME280;21367;51.930;8.112;2023-02-11T19:02:01;102916.88;;;8.02;100.00
35224;BME280;21367;51.930;8.112;2023-02-11T19:07:08;102930.75;;;7.85;100.00
35224;BME280;21367;51.930;8.112;2023-02-11T19:12:11;102936.00;;;8.05;100.00
35224;BME280;21367;51.930;8.112;2023-02-11T19:17:15;102931.97;;;7.99;100.00
35224;BME280;21367;51.930;8.112;2023-02-11T19:22:23;102943.56;;;7.85;100.00
35224;BME280;21367;51.930;8.112;2023-02-11T19:27:27;102947.78;;;7.84;100.00
35224;BME280;21367;51.930;8.112;2023-02-11T19:32:31;102956.75;;;7.89;100.00
35224;BME280;21367;51.930;8.112;2023-02-11T19:37:37;102958.53;;;8.09;100.00
35224;BME280;21367;51.930;8.112;2023-02-11T19:42:41;102949.28;;;8.01;100.00
35224;BME280;21367;51.930;8.112;2023-02-11T19:47:46;102952.28;;;8.16;100.00
35224;BME280;21367;51.930;8.112;2023-02-11T19:52:52;102966.34;;;8.11;100.00
35224;BME280;21367;51.930;8.112;2023-02-11T19:57:56;102976.53;;;8.01;100.00
35224;BME280;21367;51.930;8.112;2023-02-11T20:03:01;102984.66;;;8.05;100.00
35224;BME280;21367;51.930;8.112;2023-02-11T20:08:07;102975.53;;;8.28;100.00
35224;BME280;21367;51.930;8.112;2023-02-11T20:13:11;102972.69;;;8.25;100.00
35224;BME280;21367;51.930;8.112;2023-02-11T20:18:15;102980.16;;;8.32;100.00
35224;BME280;21367;51.930;8.112;2023-02-11T20:23:21;102963.03;;;8.12;100.00
35224;BME280;21367;51.930;8.112;2023-02-11T20:28:25;102961.53;;;8.43;100.00
35224;BME280;21367;51.930;8.112;2023-02-11T20:33:29;102960.00;;;7.97;100.00
35224;BME280;21367;51.930;8.112;2023-02-11T20:38:37;102976.03;;;8.05;100.00
35224;BME280;21367;51.930;8.112;2023-02-11T20:43:42;102966.63;;;8.14;100.00
35224;BME280;21367;51.930;8.112;2023-02-11T20:48:46;102973.41;;;8.14;100.00
35224;BME280;21367;51.930;8.112;2023-02-11T20:53:53;102980.69;;;8.09;100.00
35224;BME280;21367;51.930;8.112;2023-02-11T20:58:58;102987.66;;;8.20;100.00
35224;BME280;21367;51.930;8.112;2023-02-11T21:04:05;102988.84;;;8.05;100.00
35224;BME280;21367;51.930;8.112;2023-02-11T21:09:14;103002.16;;;8.01;100.00
35224;BME280;21367;51.930;8.112;2023-02-11T21:14:20;103005.78;;;7.65;100.00
35224;BME280;21367;51.930;8.112;2023-02-11T21:19:24;102995.25;;;8.00;100.00
35224;BME280;21367;51.930;8.112;2023-02-11T21:24:31;103007.88;;;8.17;100.00
35224;BME280;21367;51.930;8.112;2023-02-11T21:29:35;103017.84;;;7.95;100.00
35224;BME280;21367;51.930;8.112;2023-02-11T21:34:38;103019.28;;;8.21;100.00
35224;BME280;21367;51.930;8.112;2023-02-11T21:39:45;103024.13;;;8.18;100.00
35224;BME280;21367;51.930;8.112;2023-02-11T21:44:49;103036.06;;;7.98;100.00
35224;BME280;21367;51.930;8.112;2023-02-11T21:49:53;103047.53;;;8.31;100.00
35224;BME280;21367;51.930;8.112;2023-02-11T21:54:59;103049.00;;;8.19;100.00
35224;BME280;21367;51.930;8.112;2023-02-11T22:00:04;103052.13;;;8.06;100.00
35224;BME280;21367;51.930;8.112;2023-02-11T22:05:09;103056.13;;;7.75;100.00
35224;BME280;21367;51.930;8.112;2023-02-11T22:10:18;103077.47;;;7.84;100.00
35224;BME280;21367;51.930;8.112;2023-02-11T22:15:22;103068.59;;;7.99;100.00
35224;BME280;21367;51.930;8.112;2023-02-11T22:20:25;103065.13;;;7.99;100.00
35224;BME280;21367;51.930;8.112;2023-02-11T22:25:31;103075.56;;;7.92;100.00
35224;BME280;21367;51.930;8.112;2023-02-11T22:30:35;103092.94;;;8.04;100.00
35224;BME280;21367;51.930;8.112;2023-02-11T22:35:39;103087.16;;;7.97;100.00
35224;BME280;21367;51.930;8.112;2023-02-11T22:40:45;103094.53;;;7.75;100.00
35224;BME280;21367;51.930;8.112;2023-02-11T22:45:49;103092.50;;;7.62;100.00
35224;BME280;21367;51.930;8.112;2023-02-11T22:50:55;103096.28;;;7.84;100.00
35224;BME280;21367;51.930;8.112;2023-02-11T22:56:08;103098.41;;;7.99;100.00
35224;BME280;21367;51.930;8.112;2023-02-11T23:01:12;103106.63;;;7.86;100.00
35224;BME280;21367;51.930;8.112;2023-02-11T23:06:17;103109.66;;;7.63;100.00
35224;BME280;21367;51.930;8.112;2023-02-11T23:11:25;103113.28;;;7.84;100.00
35224;BME280;21367;51.930;8.112;2023-02-11T23:16:32;103113.25;;;7.65;100.00
35224;BME280;21367;51.930;8.112;2023-02-11T23:21:36;103115.03;;;7.94;100.00
35224;BME280;21367;51.930;8.112;2023-02-11T23:26:43;103124.19;;;7.73;100.00
35224;BME280;21367;51.930;8.112;2023-02-11T23:31:46;103117.63;;;7.66;100.00
35224;BME280;21367;51.930;8.112;2023-02-11T23:36:50;103116.56;;;7.64;100.00
35224;BME280;21367;51.930;8.112;2023-02-11T23:41:58;103119.06;;;7.73;100.00
35224;BME280;21367;51.930;8.112;2023-02-11T23:47:01;103123.16;;;7.89;100.00
35224;BME280;21367;51.930;8.112;2023-02-11T23:52:05;103126.56;;;7.80;100.00
35224;BME280;21367;51.930;8.112;2023-02-11T23:57:11;103121.16;;;7.77;100.00
